createdAt,value
2022-08-30T00:00:35.594Z,100038.66
2022-08-30T00:03:07.114Z,100035.69
2022-08-30T00:05:40.236Z,100052.16
2022-08-30T00:08:11.368Z,100045.50
2022-08-30T00:10:43.710Z,100046.69
2022-08-30T00:13:15.223Z,100042.34
2022-08-30T00:15:45.833Z,100043.75
2022-08-30T00:18:18.196Z,100042.09
2022-08-30T00:20:52.493Z,100048.47
2022-08-30T00:23:23.285Z,100040.16
2022-08-30T00:25:53.450Z,100044.88
2022-08-30T00:28:24.775Z,100043.38
2022-08-30T00:30:55.091Z,100041.91
2022-08-30T00:33:25.847Z,100048.28
2022-08-30T00:35:59.317Z,100048.47
2022-08-30T00:38:29.755Z,100042.66
2022-08-30T00:41:00.477Z,100052.09
2022-08-30T00:43:36.708Z,100055.31
2022-08-30T00:46:08.787Z,100047.66
2022-08-30T00:48:42.013Z,100051.53
2022-08-30T00:51:17.116Z,100049.41
2022-08-30T00:53:51.311Z,100044.56
2022-08-30T00:56:22.245Z,100040.38
2022-08-30T00:58:56.920Z,100039.56
2022-08-30T01:01:28.321Z,100056.84
2022-08-30T01:04:02.427Z,100056.03
2022-08-30T01:06:35.906Z,100047.34
2022-08-30T01:09:08.151Z,100042.41
2022-08-30T01:11:41.877Z,100046.47
2022-08-30T01:14:13.113Z,100043.53
2022-08-30T01:16:46.391Z,100047.00
2022-08-30T01:19:31.351Z,100048.03
2022-08-30T01:22:08.620Z,100039.91
2022-08-30T01:24:41.518Z,100053.75
2022-08-30T01:27:11.733Z,100063.28
2022-08-30T01:29:45.246Z,100051.91
2022-08-30T01:32:21.246Z,100052.75
2022-08-30T01:34:51.698Z,100058.66
2022-08-30T01:37:28.069Z,100061.31
2022-08-30T01:40:01.136Z,100057.34
2022-08-30T01:42:31.547Z,100059.00
2022-08-30T01:45:01.922Z,100049.31
2022-08-30T01:47:33.282Z,100053.66
2022-08-30T01:50:03.912Z,100049.66
2022-08-30T01:52:34.189Z,100050.66
2022-08-30T01:55:08.955Z,100052.69
2022-08-30T01:57:39.345Z,100053.53
2022-08-30T02:00:12.870Z,100045.50
2022-08-30T02:02:44.005Z,100052.22
2022-08-30T02:05:14.925Z,100050.38
2022-08-30T02:07:45.456Z,100047.69
2022-08-30T02:10:18.495Z,100054.91
2022-08-30T02:12:48.750Z,100047.03
2022-08-30T02:15:19.521Z,100049.91
2022-08-30T02:17:49.779Z,100048.25
2022-08-30T02:20:20.573Z,100040.13
2022-08-30T02:22:51.054Z,100045.09
2022-08-30T02:25:25.072Z,100045.09
2022-08-30T02:27:55.258Z,100040.13
2022-08-30T02:30:25.790Z,100044.81
2022-08-30T02:32:55.982Z,100046.53
2022-08-30T02:35:26.478Z,100044.22
2022-08-30T02:37:57.134Z,100042.44
2022-08-30T02:40:30.029Z,100047.47
2022-08-30T02:43:00.391Z,100053.00
2022-08-30T02:45:30.956Z,100041.97
2022-08-30T02:48:01.356Z,100043.53
2022-08-30T02:50:32.062Z,100042.75
2022-08-30T02:53:02.210Z,100044.25
2022-08-30T02:55:35.108Z,100037.22
2022-08-30T02:58:05.505Z,100038.78
2022-08-30T03:00:35.723Z,100038.78
2022-08-30T03:03:07.623Z,100032.09
2022-08-30T03:05:39.741Z,100041.13
2022-08-30T03:08:11.031Z,100041.47
2022-08-30T03:10:43.934Z,100023.81
2022-08-30T03:13:14.163Z,100035.31
2022-08-30T03:15:44.407Z,100043.66
2022-08-30T03:18:14.554Z,100040.50
2022-08-30T03:20:46.328Z,100028.03
2022-08-30T03:23:25.991Z,100036.25
2022-08-30T03:25:58.776Z,100044.25
2022-08-30T03:28:29.789Z,100044.44
2022-08-30T03:31:00.007Z,100049.13
2022-08-30T03:33:30.442Z,100055.28
2022-08-30T03:36:01.985Z,100044.13
2022-08-30T03:38:32.107Z,100048.97
2022-08-30T03:41:05.785Z,100047.31
2022-08-30T03:43:37.717Z,100040.13
2022-08-30T03:46:08.724Z,100045.81
2022-08-30T03:48:38.964Z,100048.66
2022-08-30T03:51:09.453Z,100049.19
2022-08-30T03:53:39.615Z,100053.03
2022-08-30T03:56:12.882Z,100056.06
2022-08-30T03:58:43.315Z,100059.56
2022-08-30T04:01:13.848Z,100065.25
2022-08-30T04:03:44.097Z,100066.09
2022-08-30T04:06:14.697Z,100066.09
2022-08-30T04:08:46.157Z,100059.56
2022-08-30T04:11:19.026Z,100071.44
2022-08-30T04:13:51.903Z,100073.28
2022-08-30T04:16:22.683Z,100071.78
2022-08-30T04:18:52.949Z,100079.47
2022-08-30T04:21:23.257Z,100080.47
2022-08-30T04:23:53.536Z,100072.75
2022-08-30T04:26:29.174Z,100080.31
2022-08-30T04:29:00.039Z,100084.13
2022-08-30T04:31:31.285Z,100086.78
2022-08-30T04:34:01.577Z,100090.75
2022-08-30T04:36:31.772Z,100099.94
2022-08-30T04:39:02.291Z,100101.59
2022-08-30T04:41:35.179Z,100105.09
2022-08-30T04:44:06.251Z,100112.88
2022-08-30T04:46:44.389Z,100098.88
2022-08-30T04:49:14.816Z,100119.88
2022-08-30T04:51:45.106Z,100106.00
2022-08-30T04:54:15.339Z,100111.69
2022-08-30T04:56:48.148Z,100127.34
2022-08-30T04:59:20.503Z,100128.00
2022-08-30T05:01:50.938Z,100120.50
2022-08-30T05:04:21.135Z,100127.28
2022-08-30T05:06:51.539Z,100130.78
2022-08-30T05:09:22.021Z,100128.59
2022-08-30T05:11:55.208Z,100129.25
2022-08-30T05:14:25.342Z,100132.34
2022-08-30T05:16:55.589Z,100130.34
2022-08-30T05:19:25.895Z,100144.78
2022-08-30T05:21:56.168Z,100140.66
2022-08-30T05:24:26.298Z,100146.47
2022-08-30T05:26:59.418Z,100143.59
2022-08-30T05:29:29.676Z,100150.09
2022-08-30T05:31:59.937Z,100155.16
2022-08-30T05:34:32.927Z,100158.88
2022-08-30T05:37:03.333Z,100141.19
2022-08-30T05:39:44.900Z,100162.09
2022-08-30T05:42:23.912Z,100160.66
2022-08-30T05:44:55.049Z,100162.09
2022-08-30T05:47:25.363Z,100162.03
2022-08-30T05:49:55.680Z,100162.66
2022-08-30T05:52:28.078Z,100169.69
2022-08-30T05:55:00.457Z,100160.56
2022-08-30T05:57:35.393Z,100156.66
2022-08-30T06:00:12.040Z,100160.00
2022-08-30T06:02:42.414Z,100158.13
2022-08-30T06:05:14.642Z,100160.34
2022-08-30T06:07:45.379Z,100149.94
2022-08-30T06:10:15.661Z,100155.78
2022-08-30T06:12:50.102Z,100150.81
2022-08-30T06:15:20.477Z,100147.75
2022-08-30T06:17:51.372Z,100146.53
2022-08-30T06:20:21.640Z,100150.66
2022-08-30T06:22:51.939Z,100133.44
2022-08-30T06:25:22.164Z,100146.72
2022-08-30T06:27:56.586Z,100149.41
2022-08-30T06:30:26.970Z,100141.28
2022-08-30T06:32:57.151Z,100145.72
2022-08-30T06:35:28.140Z,100149.09
2022-08-30T06:37:58.646Z,100152.72
2022-08-30T06:40:29.044Z,100149.00
2022-08-30T06:43:01.934Z,100144.56
2022-08-30T06:45:32.233Z,100154.72
2022-08-30T06:48:02.566Z,100142.88
2022-08-30T06:50:32.770Z,100151.78
2022-08-30T06:53:06.115Z,100148.38
2022-08-30T06:55:36.320Z,100158.19
2022-08-30T06:58:09.802Z,100155.53
2022-08-30T07:00:41.989Z,100161.16
2022-08-30T07:03:12.205Z,100158.28
2022-08-30T07:05:42.430Z,100154.00
2022-08-30T07:08:12.704Z,100160.53
2022-08-30T07:10:43.108Z,100158.78
2022-08-30T07:13:16.329Z,100160.84
2022-08-30T07:15:47.200Z,100157.72
2022-08-30T07:18:30.635Z,100148.34
2022-08-30T07:21:02.031Z,100152.78
2022-08-30T07:23:32.226Z,100147.19
2022-08-30T07:26:07.986Z,100154.22
2022-08-30T07:28:41.603Z,100148.84
2022-08-30T07:31:12.752Z,100155.34
2022-08-30T07:33:43.384Z,100156.38
2022-08-30T07:36:14.459Z,100155.38
2022-08-30T07:38:44.831Z,100147.50
2022-08-30T07:41:21.524Z,100151.16
2022-08-30T07:43:54.504Z,100149.00
2022-08-30T07:46:25.936Z,100148.50
2022-08-30T07:48:58.846Z,100145.78
2022-08-30T07:51:30.733Z,100144.38
2022-08-30T07:54:01.082Z,100140.00
2022-08-30T07:56:31.458Z,100141.72
2022-08-30T07:59:04.452Z,100149.41
2022-08-30T08:01:34.819Z,100146.75
2022-08-30T08:04:05.790Z,100144.25
2022-08-30T08:06:36.014Z,100155.28
2022-08-30T08:09:06.931Z,100149.88
2022-08-30T08:11:37.709Z,100146.72
2022-08-30T08:14:11.759Z,100147.91
2022-08-30T08:16:44.899Z,100156.00
2022-08-30T08:19:15.232Z,100162.00
2022-08-30T08:21:45.461Z,100167.09
2022-08-30T08:24:16.550Z,100161.75
2022-08-30T08:26:46.765Z,100158.47
2022-08-30T08:29:19.599Z,100162.94
2022-08-30T08:31:49.908Z,100162.25
2022-08-30T08:34:23.473Z,100162.63
2022-08-30T08:36:56.725Z,100159.63
2022-08-30T08:39:26.616Z,100157.19
2022-08-30T08:42:07.086Z,100164.38
2022-08-30T08:44:54.774Z,100162.19
2022-08-30T08:47:32.795Z,100159.25
2022-08-30T08:50:06.621Z,100165.66
2022-08-30T08:53:03.398Z,100157.91
2022-08-30T08:55:33.650Z,100157.91
2022-08-30T08:58:04.974Z,100158.56
2022-08-30T09:00:37.855Z,100151.56
2022-08-30T09:03:08.941Z,100148.16
2022-08-30T09:05:43.800Z,100155.53
2022-08-30T09:08:17.122Z,100144.25
2022-08-30T09:10:57.074Z,100143.03
2022-08-30T09:13:28.515Z,100137.22
2022-08-30T09:16:02.059Z,100128.69
2022-08-30T09:18:45.656Z,100131.28
2022-08-30T09:21:17.668Z,100132.59
2022-08-30T09:23:54.117Z,100117.47
2022-08-30T09:26:32.603Z,100113.16
2022-08-30T09:29:05.140Z,100112.66
2022-08-30T09:32:01.301Z,100114.25
2022-08-30T09:34:40.577Z,100100.69
2022-08-30T09:37:31.852Z,100101.69
2022-08-30T09:40:03.186Z,100096.47
2022-08-30T09:42:33.553Z,100094.91
2022-08-30T09:45:13.317Z,100103.53
2022-08-30T09:47:46.740Z,100093.81
2022-08-30T09:50:20.080Z,100082.53
2022-08-30T09:53:02.805Z,100076.38
2022-08-30T09:55:46.772Z,100080.16
2022-08-30T09:58:29.938Z,100070.63
2022-08-30T10:01:09.590Z,100078.53
2022-08-30T10:03:51.623Z,100078.47
2022-08-30T10:06:31.900Z,100076.22
2022-08-30T10:09:14.654Z,100080.34
2022-08-30T10:11:56.488Z,100080.44
2022-08-30T10:14:52.932Z,100070.63
2022-08-30T10:17:39.376Z,100070.59
2022-08-30T10:20:22.095Z,100064.69
2022-08-30T10:22:59.110Z,100068.06
2022-08-30T10:25:35.148Z,100070.03
2022-08-30T10:28:16.012Z,100068.56
2022-08-30T10:30:51.261Z,100069.19
2022-08-30T10:33:31.777Z,100065.44
2022-08-30T10:36:10.335Z,100060.56
2022-08-30T10:38:43.965Z,100063.66
2022-08-30T10:41:22.541Z,100057.88
2022-08-30T10:44:00.061Z,100059.44
2022-08-30T10:46:37.426Z,100055.53
2022-08-30T10:49:12.986Z,100061.78
2022-08-30T10:51:52.808Z,100053.34
2022-08-30T10:54:31.413Z,100050.34
2022-08-30T10:57:02.948Z,100044.22
2022-08-30T10:59:33.563Z,100042.00
2022-08-30T11:02:45.012Z,100045.28
2022-08-30T11:05:31.390Z,100040.31
2022-08-30T11:08:22.070Z,100036.44
2022-08-30T11:11:05.029Z,100036.09
2022-08-30T11:13:38.850Z,100030.56
2022-08-30T11:16:15.525Z,100026.06
2022-08-30T11:18:51.039Z,100031.97
2022-08-30T11:21:36.977Z,100025.97
2022-08-30T11:24:12.993Z,100032.25
2022-08-30T11:27:00.117Z,100014.78
2022-08-30T11:29:37.428Z,100024.28
2022-08-30T11:32:27.985Z,100019.03
2022-08-30T11:35:02.703Z,100015.50
2022-08-30T11:37:39.722Z,100012.31
2022-08-30T11:40:35.727Z,100001.03
2022-08-30T11:43:45.678Z,100000.97
2022-08-30T11:46:24.465Z,99995.06
2022-08-30T11:48:56.850Z,100000.59
2022-08-30T11:52:08.414Z,99998.84
2022-08-30T11:55:00.210Z,100007.31
2022-08-30T11:57:40.647Z,99993.00
2022-08-30T12:00:15.264Z,99995.44
2022-08-30T12:02:54.842Z,99982.22
2022-08-30T12:05:51.439Z,99988.53
2022-08-30T12:08:56.479Z,99993.38
2022-08-30T12:12:02.761Z,99985.72
2022-08-30T12:14:47.815Z,99989.78
2022-08-30T12:17:47.299Z,99982.69
2022-08-30T12:20:23.924Z,99976.88
2022-08-30T12:22:55.622Z,99960.78
2022-08-30T12:25:33.623Z,99968.91
2022-08-30T12:28:17.998Z,99956.53
2022-08-30T12:30:51.039Z,99950.88
2022-08-30T12:33:39.512Z,99947.91
2022-08-30T12:36:15.802Z,99938.53
2022-08-30T12:38:46.529Z,99940.38
2022-08-30T12:41:23.573Z,99935.97
2022-08-30T12:43:56.063Z,99924.31
2022-08-30T12:46:30.142Z,99924.03
2022-08-30T12:49:01.005Z,99880.34
2022-08-30T12:51:41.180Z,99919.41
2022-08-30T12:54:19.059Z,99928.00
2022-08-30T12:57:10.029Z,99924.78
2022-08-30T12:59:58.165Z,99921.16
2022-08-30T13:02:46.835Z,99910.28
2022-08-30T13:05:40.258Z,99913.34
2022-08-30T13:08:22.474Z,99911.50
2022-08-30T13:11:07.999Z,99910.22
2022-08-30T13:13:44.460Z,99904.69
2022-08-30T13:16:26.482Z,99904.28
2022-08-30T13:19:22.730Z,99902.28
2022-08-30T13:21:55.427Z,99910.00
2022-08-30T13:24:26.234Z,99906.88
2022-08-30T13:26:57.132Z,99899.03
2022-08-30T13:29:30.158Z,99904.38
2022-08-30T13:32:01.049Z,99902.59
2022-08-30T13:34:36.449Z,99901.38
2022-08-30T13:37:44.358Z,99902.09
2022-08-30T13:40:04.774Z,99903.81
2022-08-30T13:42:35.329Z,99898.09
2022-08-30T13:45:40.795Z,99903.81
2022-08-30T13:47:57.989Z,99904.75
2022-08-30T13:50:30.918Z,99891.31
2022-08-30T13:53:01.146Z,99891.25
2022-08-30T13:55:31.919Z,99884.59
2022-08-30T13:58:02.173Z,99889.41
2022-08-30T14:00:37.632Z,99883.72
2022-08-30T14:03:09.000Z,99881.09
2022-08-30T14:06:00.378Z,99875.50
2022-08-30T14:08:54.781Z,99868.19
2022-08-30T14:11:25.763Z,99868.63
2022-08-30T14:16:47.671Z,99865.16
2022-08-30T14:19:19.107Z,99852.34
2022-08-30T14:21:51.921Z,99845.00
2022-08-30T14:24:23.357Z,99846.72
2022-08-30T14:26:54.756Z,99854.75
2022-08-30T14:29:30.050Z,99844.44
2022-08-30T14:32:00.884Z,99847.50
2022-08-30T14:34:31.628Z,99842.53
2022-08-30T14:37:06.970Z,99837.19
2022-08-30T14:39:39.019Z,99842.25
2022-08-30T14:42:11.533Z,99832.31
2022-08-30T14:44:56.207Z,99829.03
2022-08-30T14:47:29.476Z,99836.16
2022-08-30T14:50:02.083Z,99830.44
2022-08-30T14:52:35.618Z,99824.09
2022-08-30T14:55:09.765Z,99818.88
2022-08-30T14:57:40.621Z,99810.34
2022-08-30T15:00:14.685Z,99810.09
2022-08-30T15:02:44.999Z,99809.22
2022-08-30T15:05:15.354Z,99804.91
2022-08-30T15:07:50.694Z,99808.41
2022-08-30T15:10:21.357Z,99804.47
2022-08-30T15:12:53.691Z,99809.09
2022-08-30T15:15:25.458Z,99804.75
2022-08-30T15:17:55.674Z,99804.38
2022-08-30T15:20:27.688Z,99807.22
2022-08-30T15:23:00.574Z,99797.81
2022-08-30T15:25:31.279Z,99803.13
2022-08-30T15:28:01.626Z,99799.06
2022-08-30T15:30:31.943Z,99799.22
2022-08-30T15:33:02.114Z,99798.59
2022-08-30T15:35:32.341Z,99804.44
2022-08-30T15:38:05.253Z,99803.25
2022-08-30T15:40:35.621Z,99814.50
2022-08-30T15:43:06.570Z,99808.19
2022-08-30T15:45:37.146Z,99808.75
2022-08-30T15:48:07.519Z,99811.16
2022-08-30T15:50:38.013Z,99792.72
2022-08-30T15:53:13.364Z,99802.91
2022-08-30T15:55:43.620Z,99802.78
2022-08-30T15:58:13.856Z,99796.84
2022-08-30T16:00:45.669Z,99800.47
2022-08-30T16:03:16.266Z,99801.84
2022-08-30T16:05:50.392Z,99802.19
2022-08-30T16:08:23.291Z,99801.94
2022-08-30T16:10:54.928Z,99798.13
2022-08-30T16:13:25.356Z,99806.03
2022-08-30T16:15:55.655Z,99800.28
2022-08-30T16:18:25.942Z,99798.88
2022-08-30T16:21:05.406Z,99802.19
2022-08-30T16:23:39.168Z,99787.75
2022-08-30T16:26:12.137Z,99794.94
2022-08-30T16:28:44.863Z,99796.47
2022-08-30T16:31:15.700Z,99797.06
2022-08-30T16:33:46.060Z,99798.94
2022-08-30T16:36:16.646Z,99803.91
2022-08-30T16:38:49.607Z,99810.91
2022-08-30T16:41:24.666Z,99807.63
2022-08-30T16:43:55.364Z,99802.16
2022-08-30T16:46:28.189Z,99803.28
2022-08-30T16:49:01.539Z,99809.13
2022-08-30T16:51:33.702Z,99811.94
2022-08-30T16:54:09.791Z,99814.00
2022-08-30T16:56:40.632Z,99817.88
2022-08-30T16:59:12.307Z,99822.97
2022-08-30T17:01:44.906Z,99816.91
2022-08-30T17:04:18.855Z,99831.69
2022-08-30T17:06:51.454Z,99826.06
2022-08-30T17:09:24.500Z,99829.09
2022-08-30T17:11:56.431Z,99829.47
2022-08-30T17:14:28.253Z,99831.75
2022-08-30T17:17:00.931Z,99835.28
2022-08-30T17:19:31.566Z,99843.19
2022-08-30T17:22:01.954Z,99845.72
2022-08-30T17:24:34.830Z,99852.56
2022-08-30T17:27:05.099Z,99851.28
2022-08-30T17:29:35.781Z,99853.06
2022-08-30T17:32:06.865Z,99858.59
2022-08-30T17:34:37.083Z,99871.16
2022-08-30T17:37:07.716Z,99866.69
2022-08-30T17:39:40.721Z,99864.94
2022-08-30T17:42:10.942Z,99868.56
2022-08-30T17:44:42.407Z,99874.09
2022-08-30T17:47:13.127Z,99876.94
2022-08-30T17:49:43.436Z,99880.19
2022-08-30T17:52:14.109Z,99888.00
2022-08-30T17:54:46.934Z,99881.25
2022-08-30T17:57:17.184Z,99892.91
2022-08-30T17:59:47.438Z,99895.75
2022-08-30T18:02:21.483Z,99896.59
2022-08-30T18:05:01.050Z,99899.91
2022-08-30T18:07:31.433Z,99898.28
2022-08-30T18:10:05.615Z,99900.59
2022-08-30T18:12:35.979Z,99911.59
2022-08-30T18:15:12.632Z,99902.78
2022-08-30T18:17:49.095Z,99915.91
2022-08-30T18:20:20.202Z,99915.91
2022-08-30T18:22:52.634Z,99923.16
2022-08-30T18:25:25.577Z,99922.16
2022-08-30T18:27:58.885Z,99930.28
2022-08-30T18:30:34.740Z,99929.00
2022-08-30T18:33:10.252Z,99934.34
2022-08-30T18:35:47.436Z,99932.97
2022-08-30T18:38:19.024Z,99934.78
2022-08-30T18:41:01.385Z,99945.25
2022-08-30T18:43:31.908Z,99949.75
2022-08-30T18:46:05.717Z,99950.06
2022-08-30T18:48:37.010Z,99946.00
2022-08-30T18:51:07.965Z,99950.00
2022-08-30T18:53:40.664Z,99945.81
2022-08-30T18:56:16.362Z,99959.91
2022-08-30T18:58:47.698Z,99961.03
2022-08-30T19:01:22.752Z,99965.00
2022-08-30T19:03:53.285Z,99951.09
2022-08-30T19:06:23.536Z,99956.28
2022-08-30T19:08:54.609Z,99962.69
2022-08-30T19:11:28.075Z,99964.31
2022-08-30T19:13:58.606Z,99970.84
2022-08-30T19:16:28.796Z,99973.44
2022-08-30T19:18:59.165Z,99963.91
2022-08-30T19:21:29.402Z,99968.50
2022-08-30T19:23:59.779Z,99960.81
2022-08-30T19:26:32.838Z,99967.03
2022-08-30T19:29:03.111Z,99964.25
2022-08-30T19:31:33.820Z,99966.19
2022-08-30T19:34:03.984Z,99956.25
2022-08-30T19:36:34.227Z,99959.03
2022-08-30T19:39:04.574Z,99963.03
2022-08-30T19:41:38.434Z,99956.69
2022-08-30T19:44:09.680Z,99966.22
2022-08-30T19:46:40.089Z,99956.72
2022-08-30T19:49:11.454Z,99962.81
2022-08-30T19:51:46.589Z,99955.38
2022-08-30T19:56:50.220Z,99965.16
2022-08-30T19:59:22.798Z,99961.25
2022-08-30T20:01:53.564Z,99953.59
2022-08-30T20:04:24.404Z,99948.22
2022-08-30T20:06:54.668Z,99963.56
2022-08-30T20:09:25.284Z,99962.31
2022-08-30T20:14:51.696Z,99964.00
2022-08-30T20:17:24.574Z,99962.59
2022-08-30T20:19:55.001Z,99955.50
2022-08-30T20:22:25.261Z,99964.84
2022-08-30T20:24:56.983Z,99963.38
2022-08-30T20:27:30.375Z,99954.91
2022-08-30T20:30:00.769Z,99964.25
2022-08-30T20:32:31.906Z,99970.06
2022-08-30T20:35:02.215Z,99967.59
2022-08-30T20:37:33.385Z,99966.97
2022-08-30T20:40:04.984Z,99959.72
2022-08-30T20:42:41.579Z,99952.66
2022-08-30T20:45:13.428Z,99954.06
2022-08-30T20:47:44.324Z,99960.91
2022-08-30T20:50:18.254Z,99959.47
2022-08-30T20:52:49.508Z,99964.41
2022-08-30T20:55:20.240Z,99963.34
2022-08-30T20:57:53.322Z,99970.81
2022-08-30T21:00:26.653Z,99973.94
2022-08-30T21:02:57.403Z,99975.78
2022-08-30T21:05:29.115Z,99969.56
2022-08-30T21:07:59.641Z,99968.53
2022-08-30T21:10:30.966Z,99970.16
2022-08-30T21:13:03.757Z,99966.38
2022-08-30T21:15:37.700Z,99963.44
2022-08-30T21:18:09.292Z,99954.72
2022-08-30T21:20:39.526Z,99959.03
2022-08-30T21:23:09.669Z,99963.38
2022-08-30T21:25:41.319Z,99959.19
2022-08-30T21:28:14.102Z,99971.13
2022-08-30T21:30:47.614Z,99973.97
2022-08-30T21:33:17.942Z,99979.94
2022-08-30T21:36:00.528Z,99981.94
2022-08-30T21:38:30.799Z,99979.03
2022-08-30T21:41:01.057Z,99981.25
2022-08-30T21:43:34.018Z,99988.50
2022-08-30T21:46:08.496Z,99979.34
2022-08-30T21:48:39.629Z,99991.75
2022-08-30T21:51:11.160Z,99977.38
2022-08-30T21:53:41.566Z,99973.41
2022-08-30T21:56:13.223Z,99981.28
2022-08-30T21:58:50.582Z,99979.22
2022-08-30T22:01:23.675Z,99980.19
2022-08-30T22:03:55.601Z,99975.19
2022-08-30T22:06:30.744Z,99965.84
2022-08-30T22:09:03.504Z,99972.81
2022-08-30T22:11:37.734Z,99970.53
2022-08-30T22:14:11.839Z,99957.19
2022-08-30T22:16:42.826Z,99973.38
2022-08-30T22:19:13.219Z,99957.75
2022-08-30T22:21:48.088Z,99982.56
2022-08-30T22:24:18.608Z,99970.34
2022-08-30T22:26:49.604Z,99952.63
2022-08-30T22:29:22.711Z,99963.22
2022-08-30T22:31:53.013Z,99967.72
2022-08-30T22:34:23.280Z,99938.00
2022-08-30T22:36:53.458Z,99972.81
2022-08-30T22:39:23.699Z,99961.81
2022-08-30T22:41:53.936Z,99968.84
2022-08-30T22:44:26.800Z,99962.84
2022-08-30T22:46:57.098Z,99970.06
2022-08-30T22:49:27.250Z,99956.84
2022-08-30T22:51:57.508Z,99949.16
2022-08-30T22:54:27.661Z,99956.59
2022-08-30T22:56:57.872Z,99953.09
2022-08-30T22:59:31.562Z,99963.16
2022-08-30T23:02:03.308Z,99966.22
2022-08-30T23:04:33.685Z,99959.66
2022-08-30T23:07:03.835Z,99963.34
2022-08-30T23:09:34.099Z,99959.28
2022-08-30T23:12:04.792Z,99954.53
2022-08-30T23:14:37.634Z,99959.53
2022-08-30T23:17:07.954Z,99940.25
2022-08-30T23:19:38.195Z,99942.31
2022-08-30T23:22:08.377Z,99939.25
2022-08-30T23:24:50.948Z,99942.19
2022-08-30T23:27:33.928Z,99931.63
2022-08-30T23:30:20.670Z,99927.09
2022-08-30T23:33:03.184Z,99928.31
2022-08-30T23:35:45.874Z,99934.13
2022-08-30T23:38:29.003Z,99924.50
2022-08-30T23:41:11.560Z,99921.69
2022-08-30T23:43:54.539Z,99931.78
2022-08-30T23:46:39.739Z,99928.22
2022-08-30T23:49:22.453Z,99926.72
2022-08-30T23:52:05.215Z,99927.22
2022-08-30T23:54:47.870Z,99920.13
2022-08-30T23:57:30.480Z,99918.44
